Time;durP1;ratioP1;P1;durP2;ratioP2;P2;SDS_P1;SDS_P2;PMS_P1;PMS_P2;Temp;Humidity;BMP_temperature;BMP_pressure;BME280_temperature;BME280_humidity;BME280_pressure;Samples;Min_cycle;Max_cycle;Signal;HPM_P1;HPM_P2
2022/07/06 00:00:06;;;;;;;7.28;1.90;;;13.60;99.90;;;;;;4969349;28;20045;-92
2022/07/06 00:02:33;;;;;;;4.60;2.15;;;13.60;99.90;;;;;;5002780;28;20493;-92
2022/07/06 00:04:59;;;;;;;5.97;2.20;;;13.60;99.90;;;;;;4968094;28;20073;-92
2022/07/06 00:07:25;;;;;;;5.03;1.88;;;13.70;99.90;;;;;;4952693;28;20053;-92
2022/07/06 00:09:52;;;;;;;7.55;2.00;;;13.70;99.90;;;;;;4971756;28;20046;-91
2022/07/06 00:12:18;;;;;;;5.15;1.63;;;13.70;99.90;;;;;;4984505;28;20402;-92
2022/07/06 00:14:44;;;;;;;7.40;2.35;;;13.80;99.90;;;;;;4985666;28;20069;-92
2022/07/06 00:17:10;;;;;;;7.30;2.05;;;13.80;99.90;;;;;;4954064;28;20080;-92
2022/07/06 00:19:37;;;;;;;6.35;1.75;;;13.80;99.90;;;;;;4970144;28;20379;-92
2022/07/06 00:22:03;;;;;;;6.45;2.03;;;13.90;99.90;;;;;;4949408;28;20127;-92
2022/07/06 00:24:29;;;;;;;6.10;1.98;;;14.00;99.90;;;;;;5014712;28;20136;-92
2022/07/06 00:26:55;;;;;;;8.30;2.65;;;13.90;99.90;;;;;;4954661;28;20048;-92
2022/07/06 00:29:21;;;;;;;8.05;2.20;;;13.90;99.90;;;;;;4967875;28;20048;-92
2022/07/06 00:31:48;;;;;;;4.55;1.75;;;13.90;99.90;;;;;;5020554;28;20042;-92
2022/07/06 00:34:14;;;;;;;6.05;1.92;;;13.90;99.90;;;;;;5005210;28;20042;-91
2022/07/06 00:36:40;;;;;;;6.07;1.95;;;14.00;99.90;;;;;;4987220;28;20211;-92
2022/07/06 00:39:07;;;;;;;5.28;1.83;;;13.90;99.90;;;;;;5004465;28;20052;-92
2022/07/06 00:41:34;;;;;;;7.55;2.00;;;13.90;99.90;;;;;;4974207;28;20077;-90
2022/07/06 00:44:06;;;;;;;4.35;2.05;;;13.80;99.90;;;;;;5020600;28;20107;-91
2022/07/06 00:46:33;;;;;;;4.68;1.98;;;13.90;99.90;;;;;;5021604;28;20048;-91
2022/07/06 00:49:00;;;;;;;4.35;1.77;;;13.90;99.90;;;;;;4988825;28;20530;-90
2022/07/06 00:51:31;;;;;;;5.40;1.80;;;13.90;99.90;;;;;;4987024;28;20050;-90
2022/07/06 00:54:00;;;;;;;8.50;2.10;;;13.90;99.90;;;;;;4988198;28;20045;-92
2022/07/06 00:56:29;;;;;;;6.22;2.13;;;13.80;99.90;;;;;;5008979;28;20038;-92
2022/07/06 00:58:57;;;;;;;6.43;1.77;;;13.80;99.90;;;;;;4973798;28;20049;-91
2022/07/06 01:01:23;;;;;;;4.05;1.65;;;13.80;99.90;;;;;;5018326;28;20060;-92
2022/07/06 01:03:50;;;;;;;6.80;1.88;;;13.90;99.90;;;;;;5004039;28;20042;-92
2022/07/06 01:06:16;;;;;;;5.53;2.70;;;13.80;99.90;;;;;;4971816;28;20044;-91
2022/07/06 01:08:42;;;;;;;5.88;2.30;;;13.80;99.90;;;;;;4971709;28;20049;-92
2022/07/06 01:11:11;;;;;;;4.55;2.10;;;13.80;99.90;;;;;;4973171;28;20485;-92
2022/07/06 01:13:38;;;;;;;5.60;2.88;;;13.80;99.90;;;;;;5004031;28;20084;-92
2022/07/06 01:16:04;;;;;;;9.60;2.53;;;13.70;99.90;;;;;;4999035;28;20062;-92
2022/07/06 01:18:31;;;;;;;7.80;2.50;;;13.80;99.90;;;;;;5003567;28;20108;-91
2022/07/06 01:21:12;;;;;;;5.38;2.38;;;13.80;99.90;;;;;;4970720;28;20056;-91
2022/07/06 01:23:40;;;;;;;5.25;2.10;;;13.70;99.90;;;;;;5035886;28;20058;-91
2022/07/06 01:26:09;;;;;;;4.82;2.28;;;13.70;99.90;;;;;;4986873;28;20050;-93
2022/07/06 01:28:35;;;;;;;4.78;2.13;;;13.70;99.90;;;;;;4989528;28;20433;-92
2022/07/06 01:31:02;;;;;;;6.18;2.28;;;13.70;99.90;;;;;;4986889;28;20497;-92
2022/07/06 01:33:28;;;;;;;6.57;2.00;;;13.70;99.90;;;;;;4969295;28;20405;-92
2022/07/06 01:35:57;;;;;;;6.03;2.30;;;13.70;99.90;;;;;;4976124;28;20133;-92
2022/07/06 01:38:24;;;;;;;6.22;2.70;;;13.70;99.90;;;;;;4974853;28;20038;-91
2022/07/06 01:40:50;;;;;;;3.75;2.10;;;13.70;99.90;;;;;;4959400;28;20096;-93
2022/07/06 01:43:16;;;;;;;4.50;2.20;;;13.70;99.90;;;;;;4970861;28;20099;-92
2022/07/06 01:45:44;;;;;;;3.47;1.70;;;13.70;99.90;;;;;;5019004;28;20052;-91
2022/07/06 01:48:10;;;;;;;6.53;2.10;;;13.60;99.90;;;;;;5012510;28;20038;-92
2022/07/06 01:50:36;;;;;;;5.65;2.47;;;13.60;99.90;;;;;;4957515;28;20050;-92
2022/07/06 01:53:03;;;;;;;4.57;2.00;;;13.60;99.90;;;;;;4972707;28;20176;-92
2022/07/06 01:55:30;;;;;;;5.05;1.88;;;13.50;99.90;;;;;;4962713;28;20050;-92
2022/07/06 01:57:57;;;;;;;6.65;2.60;;;13.60;99.90;;;;;;5011601;28;20490;-92
2022/07/06 02:00:24;;;;;;;4.00;2.03;;;13.60;99.90;;;;;;4990789;28;20057;-92
2022/07/06 02:02:50;;;;;;;5.18;2.30;;;13.60;99.90;;;;;;5010172;28;20069;-92
2022/07/06 02:05:17;;;;;;;6.90;2.28;;;13.60;99.90;;;;;;5005859;28;20053;-92
2022/07/06 02:07:44;;;;;;;4.63;2.17;;;13.60;99.90;;;;;;4971451;28;20053;-92
2022/07/06 02:10:11;;;;;;;6.70;2.30;;;13.60;99.90;;;;;;4988723;28;20082;-92
2022/07/06 02:12:38;;;;;;;6.15;2.08;;;13.50;99.90;;;;;;4977618;28;20054;-93
2022/07/06 02:15:05;;;;;;;4.00;2.20;;;13.50;99.90;;;;;;4955477;28;20057;-92
2022/07/06 02:17:34;;;;;;;5.80;2.17;;;13.50;99.90;;;;;;4973008;28;20087;-92
2022/07/06 02:20:01;;;;;;;4.93;2.08;;;13.50;99.90;;;;;;4975874;28;20099;-92
2022/07/06 02:22:28;;;;;;;4.93;2.28;;;13.50;99.90;;;;;;5001079;28;20050;-92
2022/07/06 02:24:54;;;;;;;5.45;2.28;;;13.50;99.90;;;;;;4968951;28;20392;-92
2022/07/06 02:27:20;;;;;;;9.13;2.60;;;13.50;99.90;;;;;;4953147;28;20193;-92
2022/07/06 02:29:47;;;;;;;6.15;2.25;;;13.60;99.90;;;;;;5004431;28;20049;-91
2022/07/06 02:32:14;;;;;;;6.35;2.25;;;13.60;99.90;;;;;;4986608;28;20536;-92
2022/07/06 02:34:40;;;;;;;6.25;2.33;;;13.60;99.90;;;;;;4974938;28;20050;-91
2022/07/06 02:37:07;;;;;;;9.13;2.60;;;13.60;99.90;;;;;;4955902;28;20088;-92
2022/07/06 02:39:33;;;;;;;6.45;2.28;;;13.60;99.90;;;;;;4960156;28;20071;-92
2022/07/06 02:41:59;;;;;;;5.35;2.00;;;13.60;99.90;;;;;;4955551;28;20050;-92
2022/07/06 02:44:26;;;;;;;5.82;2.13;;;13.60;99.90;;;;;;4999730;28;20052;-92
2022/07/06 02:46:53;;;;;;;3.80;1.98;;;13.60;99.90;;;;;;4972578;28;20042;-92
2022/07/06 02:49:22;;;;;;;5.95;2.15;;;13.60;99.90;;;;;;4988772;28;20341;-91
2022/07/06 02:51:49;;;;;;;8.65;2.20;;;13.60;99.90;;;;;;4988847;28;20041;-92
2022/07/06 02:54:16;;;;;;;3.58;1.95;;;13.60;99.90;;;;;;4970032;28;20097;-91
2022/07/06 02:56:42;;;;;;;6.47;2.20;;;13.60;99.90;;;;;;4987060;28;20061;-91
2022/07/06 02:59:15;;;;;;;6.22;1.90;;;13.60;99.90;;;;;;5003926;28;20042;-92
2022/07/06 03:01:43;;;;;;;5.13;2.00;;;13.60;99.90;;;;;;5012279;28;20041;-92
2022/07/06 03:04:10;;;;;;;5.75;1.70;;;13.70;99.90;;;;;;4956687;28;20077;-91
2022/07/06 03:06:37;;;;;;;5.93;2.45;;;13.70;99.90;;;;;;5003014;28;20080;-92
2022/07/06 03:09:05;;;;;;;7.40;2.13;;;13.70;99.90;;;;;;4994156;28;20045;-92
2022/07/06 03:11:35;;;;;;;7.40;1.90;;;13.70;99.90;;;;;;4990048;28;20054;-92
2022/07/06 03:14:04;;;;;;;6.40;2.30;;;13.70;99.90;;;;;;4995630;28;20474;-91
2022/07/06 03:16:33;;;;;;;5.20;1.90;;;13.80;99.90;;;;;;5004278;28;20421;-92
2022/07/06 03:19:03;;;;;;;5.88;1.80;;;13.70;99.90;;;;;;5008607;28;20102;-93
2022/07/06 03:21:29;;;;;;;8.05;2.20;;;13.80;99.90;;;;;;5038051;28;20049;-92
2022/07/06 03:23:55;;;;;;;6.55;1.77;;;13.70;99.90;;;;;;4987366;28;20057;-90
2022/07/06 03:26:22;;;;;;;3.60;1.63;;;13.70;99.90;;;;;;4997407;28;20135;-92
2022/07/06 03:28:48;;;;;;;4.18;1.55;;;13.80;99.90;;;;;;4991339;28;20042;-92
2022/07/06 03:31:18;;;;;;;3.85;1.63;;;13.80;99.90;;;;;;4985490;28;20048;-91
2022/07/06 03:33:45;;;;;;;3.97;1.70;;;13.80;99.90;;;;;;5003594;28;20050;-91
2022/07/06 03:36:11;;;;;;;4.50;1.67;;;13.90;99.90;;;;;;4956595;28;20065;-91
2022/07/06 03:38:38;;;;;;;6.57;1.77;;;13.90;99.90;;;;;;4978642;28;20046;-91
2022/07/06 03:41:05;;;;;;;5.35;1.40;;;13.90;99.90;;;;;;4986130;28;20093;-93
2022/07/06 03:43:32;;;;;;;6.82;1.65;;;13.90;99.90;;;;;;4957662;28;20049;-93
2022/07/06 03:45:59;;;;;;;6.20;2.00;;;14.00;99.90;;;;;;4983151;28;20125;-92
2022/07/06 03:48:27;;;;;;;5.70;1.52;;;14.00;99.90;;;;;;4985782;28;20046;-92
2022/07/06 03:50:54;;;;;;;5.30;1.50;;;14.00;99.90;;;;;;4986503;28;20129;-93
2022/07/06 03:53:21;;;;;;;2.63;1.42;;;14.00;99.90;;;;;;4954847;28;20120;-92
2022/07/06 03:58:34;;;;;;;5.78;1.63;;;14.00;99.90;;;;;;5017327;28;20124;-92
2022/07/06 04:01:00;;;;;;;5.68;1.95;;;14.00;99.90;;;;;;4998356;28;20132;-93
2022/07/06 04:03:35;;;;;;;3.58;1.60;;;14.10;99.90;;;;;;5000117;28;20573;-92
2022/07/06 04:06:06;;;;;;;6.18;1.85;;;14.10;99.90;;;;;;4972106;28;20042;-91
2022/07/06 04:08:33;;;;;;;4.88;1.48;;;14.20;99.90;;;;;;4975357;28;20073;-92
2022/07/06 04:11:01;;;;;;;4.40;1.30;;;14.20;99.90;;;;;;4990910;28;20046;-91
2022/07/06 04:13:27;;;;;;;3.63;2.13;;;14.30;99.90;;;;;;4980488;28;20038;-91
2022/07/06 04:15:58;;;;;;;5.47;1.60;;;14.30;99.90;;;;;;4988979;28;20501;-92
2022/07/06 04:18:25;;;;;;;6.35;1.73;;;14.30;99.90;;;;;;4989374;28;20050;-91
2022/07/06 04:20:54;;;;;;;4.85;1.45;;;14.30;99.90;;;;;;5007201;28;20054;-92
2022/07/06 04:23:24;;;;;;;3.10;1.40;;;14.30;99.90;;;;;;5016834;28;20049;-92
2022/07/06 04:25:52;;;;;;;8.68;1.77;;;14.40;99.90;;;;;;5020486;28;20042;-91
2022/07/06 04:28:19;;;;;;;6.47;1.60;;;14.50;99.90;;;;;;5010973;28;20050;-92
2022/07/06 04:30:46;;;;;;;5.35;1.75;;;14.50;99.90;;;;;;4963245;28;20497;-92
2022/07/06 04:33:27;;;;;;;3.63;1.40;;;14.60;99.90;;;;;;5001381;28;20040;-92
2022/07/06 04:35:59;;;;;;;4.45;1.45;;;14.70;99.90;;;;;;5005054;28;20361;-91
2022/07/06 04:38:33;;;;;;;4.10;1.48;;;14.70;99.90;;;;;;4961977;28;20045;-93
2022/07/06 04:41:03;;;;;;;7.28;3.00;;;14.70;99.90;;;;;;4996685;28;20037;-92
2022/07/06 04:43:29;;;;;;;7.63;1.60;;;14.70;99.90;;;;;;4994745;28;20425;-91
2022/07/06 04:45:56;;;;;;;3.95;1.40;;;14.80;99.90;;;;;;4978476;28;20443;-92
2022/07/06 04:48:22;;;;;;;6.35;1.52;;;14.80;99.90;;;;;;5007579;28;20097;-91
2022/07/06 04:50:49;;;;;;;4.10;1.30;;;14.80;99.90;;;;;;5011196;28;20054;-91
2022/07/06 04:53:21;;;;;;;4.50;1.50;;;14.70;99.90;;;;;;4977977;28;20053;-92
2022/07/06 04:55:48;;;;;;;7.35;2.08;;;14.70;99.90;;;;;;4992173;28;20052;-93
2022/07/06 04:58:15;;;;;;;5.75;1.70;;;14.70;99.90;;;;;;5005994;28;20069;-91
2022/07/06 05:00:42;;;;;;;4.25;1.48;;;14.70;99.90;;;;;;4994489;28;20038;-93
2022/07/06 05:03:17;;;;;;;5.35;1.63;;;14.80;99.90;;;;;;4955756;28;20559;-91
2022/07/06 05:05:44;;;;;;;4.05;1.30;;;14.80;99.90;;;;;;5023069;28;20395;-92
2022/07/06 05:08:10;;;;;;;3.95;1.40;;;14.80;99.90;;;;;;4976241;28;20049;-94
2022/07/06 05:10:37;;;;;;;8.30;1.40;;;14.90;99.90;;;;;;5019994;28;20046;-92
2022/07/06 05:13:04;;;;;;;6.10;1.52;;;15.10;99.90;;;;;;5011936;28;20595;-93
2022/07/06 05:15:33;;;;;;;6.28;1.73;;;15.50;99.90;;;;;;4959626;28;20050;-93
2022/07/06 05:18:00;;;;;;;5.60;1.02;;;15.90;99.90;;;;;;4972926;28;20046;-93
2022/07/06 05:20:27;;;;;;;5.90;1.20;;;16.20;99.90;;;;;;5003084;28;20136;-93
2022/07/06 05:22:53;;;;;;;3.72;0.80;;;16.50;99.90;;;;;;4976618;28;20121;-94
2022/07/06 05:25:24;;;;;;;6.63;1.10;;;16.80;99.90;;;;;;4978363;28;20046;-81
2022/07/06 05:27:50;;;;;;;3.88;0.93;;;17.00;99.90;;;;;;4969123;28;20367;-82
2022/07/06 05:30:17;;;;;;;5.78;1.58;;;17.20;99.90;;;;;;4967458;28;20148;-82
2022/07/06 05:32:44;;;;;;;5.85;0.90;;;17.00;99.90;;;;;;4998517;28;20104;-82
2022/07/06 05:35:10;;;;;;;4.40;0.85;;;17.20;99.90;;;;;;4968287;28;20551;-82
2022/07/06 05:37:36;;;;;;;4.32;1.13;;;17.20;99.90;;;;;;4955694;28;20129;-81
2022/07/06 05:40:03;;;;;;;4.95;0.93;;;17.20;99.90;;;;;;4969258;28;20056;-81
2022/07/06 05:42:29;;;;;;;5.28;0.82;;;17.40;99.90;;;;;;4979653;28;20061;-82
2022/07/06 05:44:56;;;;;;;6.00;1.10;;;17.40;99.90;;;;;;5003347;28;20048;-81
2022/07/06 05:50:13;;;;;;;4.63;0.98;;;16.80;99.90;;;;;;4965336;28;20416;-81
2022/07/06 05:52:59;;;;;;;4.18;1.00;;;16.60;99.90;;;;;;4954590;28;20050;-81
2022/07/06 05:55:27;;;;;;;5.57;1.15;;;16.50;99.90;;;;;;5017482;28;20587;-80
2022/07/06 05:57:55;;;;;;;6.38;1.00;;;16.40;99.90;;;;;;4987808;28;20049;-80
2022/07/06 06:00:27;;;;;;;5.45;1.27;;;16.40;99.90;;;;;;4986220;28;20052;-81
2022/07/06 06:02:58;;;;;;;4.57;0.98;;;16.40;99.90;;;;;;5015563;28;20089;-81
2022/07/06 06:05:26;;;;;;;4.78;0.90;;;16.30;99.90;;;;;;4985830;28;20049;-82
2022/07/06 06:07:57;;;;;;;;;;;16.40;99.90;;;;;;5000439;28;20112;-83
2022/07/06 06:10:25;;;;;;;6.80;1.35;;;16.40;99.90;;;;;;5016081;28;19987;-81
2022/07/06 06:12:55;;;;;;;4.10;0.95;;;16.40;99.90;;;;;;5004112;28;20041;-82
2022/07/06 06:15:22;;;;;;;2.80;0.60;;;16.50;99.90;;;;;;5045908;28;20081;-82
2022/07/06 06:17:48;;;;;;;4.10;0.70;;;16.40;99.90;;;;;;5015884;28;20144;-82
2022/07/06 06:20:15;;;;;;;3.30;0.65;;;16.50;99.90;;;;;;5015260;28;20076;-83
2022/07/06 06:22:53;;;;;;;5.32;0.75;;;16.50;99.90;;;;;;5018061;28;20362;-81
2022/07/06 06:25:21;;;;;;;6.18;1.00;;;16.50;99.90;;;;;;5029839;28;20049;-81
2022/07/06 06:27:47;;;;;;;3.72;1.15;;;16.50;99.90;;;;;;5017460;28;20041;-81
2022/07/06 06:30:16;;;;;;;8.23;2.17;;;16.40;99.90;;;;;;4969401;28;20042;-81
2022/07/06 06:32:43;;;;;;;4.97;0.88;;;16.40;99.90;;;;;;4999174;28;20072;-80
2022/07/06 06:35:09;;;;;;;8.10;2.42;;;16.30;99.90;;;;;;4985209;28;20069;-81
2022/07/06 06:37:36;;;;;;;8.10;0.80;;;16.50;99.90;;;;;;5010424;28;20078;-82
2022/07/06 06:40:04;;;;;;;4.35;0.70;;;16.50;99.90;;;;;;4949998;28;20397;-82
2022/07/06 06:42:30;;;;;;;5.60;0.90;;;16.50;99.90;;;;;;4998586;28;20046;-82
2022/07/06 06:45:00;;;;;;;3.75;1.10;;;16.50;99.90;;;;;;4981389;28;20046;-82
2022/07/06 06:47:26;;;;;;;3.08;0.75;;;16.60;99.90;;;;;;4982535;28;20049;-82
2022/07/06 06:49:52;;;;;;;3.65;0.98;;;16.50;99.90;;;;;;4998711;28;20462;-81
2022/07/06 06:52:18;;;;;;;2.42;0.75;;;16.60;99.90;;;;;;4963538;28;20085;-81
2022/07/06 06:54:44;;;;;;;2.33;0.65;;;16.60;99.90;;;;;;4982580;28;20049;-82
2022/07/06 06:57:11;;;;;;;7.57;1.00;;;16.70;99.90;;;;;;5002902;28;20049;-81
2022/07/06 06:59:37;;;;;;;3.83;0.95;;;16.80;99.90;;;;;;4979366;28;20585;-82
2022/07/06 07:02:03;;;;;;;4.78;0.80;;;17.00;99.90;;;;;;4963819;28;20042;-82
2022/07/06 07:04:30;;;;;;;6.90;1.08;;;17.00;99.90;;;;;;5000715;28;20161;-82
2022/07/06 07:06:56;;;;;;;4.60;1.10;;;17.30;99.90;;;;;;4995902;28;20372;-81
2022/07/06 07:09:23;;;;;;;4.95;0.82;;;17.70;99.90;;;;;;4962745;28;20580;-81
2022/07/06 07:11:50;;;;;;;5.07;0.80;;;17.70;99.90;;;;;;4996935;28;20365;-81
2022/07/06 07:14:16;;;;;;;3.60;0.68;;;17.70;99.90;;;;;;4974490;28;20050;-81
2022/07/06 07:16:42;;;;;;;5.07;1.17;;;17.40;99.90;;;;;;4973926;28;20291;-81
2022/07/06 07:19:09;;;;;;;5.53;1.25;;;17.30;99.90;;;;;;4964640;28;20053;-81
2022/07/06 07:21:35;;;;;;;3.53;0.85;;;17.30;99.90;;;;;;4977136;28;20612;-81
2022/07/06 07:24:01;;;;;;;3.40;0.77;;;17.30;99.90;;;;;;4965722;28;20154;-81
2022/07/06 07:26:28;;;;;;;5.43;0.70;;;17.10;99.90;;;;;;4984234;28;20050;-82
2022/07/06 07:28:54;;;;;;;2.08;0.52;;;17.10;99.90;;;;;;4965069;28;20085;-81
2022/07/06 07:31:21;;;;;;;2.60;0.70;;;17.10;99.90;;;;;;4994278;28;20502;-81
2022/07/06 07:33:47;;;;;;;3.85;0.82;;;17.40;99.90;;;;;;5014401;28;20077;-81
2022/07/06 07:36:14;;;;;;;4.82;0.80;;;17.60;99.90;;;;;;4966801;28;20050;-81
2022/07/06 07:38:40;;;;;;;6.32;0.70;;;17.90;99.90;;;;;;4990161;28;20049;-81
2022/07/06 07:41:06;;;;;;;8.43;1.30;;;18.40;99.90;;;;;;4983269;28;20445;-81
2022/07/06 07:43:32;;;;;;;4.82;0.90;;;18.70;99.90;;;;;;4965164;28;20376;-81
2022/07/06 07:45:59;;;;;;;7.07;1.98;;;19.10;99.90;;;;;;4982988;28;20042;-81
2022/07/06 07:48:25;;;;;;;3.47;0.50;;;19.10;99.90;;;;;;4997525;28;20052;-81
2022/07/06 07:50:51;;;;;;;3.63;0.68;;;19.30;99.90;;;;;;4981700;28;20042;-82
2022/07/06 07:53:17;;;;;;;2.75;0.68;;;19.50;99.90;;;;;;4967999;28;20474;-81
2022/07/06 07:55:44;;;;;;;3.40;0.70;;;20.00;99.90;;;;;;4966603;28;21148;-82
2022/07/06 07:58:10;;;;;;;3.92;0.90;;;20.20;99.90;;;;;;4998845;28;20488;-81
2022/07/06 08:00:37;;;;;;;3.17;0.70;;;19.90;99.90;;;;;;4988952;28;20050;-82
2022/07/06 08:03:03;;;;;;;2.55;0.80;;;20.10;99.90;;;;;;5005001;28;20046;-81
2022/07/06 08:05:29;;;;;;;2.67;0.70;;;19.90;99.90;;;;;;4985794;28;20472;-82
2022/07/06 08:07:55;;;;;;;3.10;0.57;;;20.10;99.90;;;;;;5002094;28;20390;-81
2022/07/06 08:10:22;;;;;;;3.15;0.68;;;20.60;99.90;;;;;;4976158;28;20116;-81
2022/07/06 08:12:48;;;;;;;2.28;0.50;;;20.80;99.90;;;;;;4982536;28;20052;-82
2022/07/06 08:15:14;;;;;;;4.40;0.50;;;21.10;99.90;;;;;;4981543;28;20085;-81
2022/07/06 08:17:40;;;;;;;6.20;1.35;;;21.10;99.90;;;;;;4982271;28;20058;-81
2022/07/06 08:20:07;;;;;;;4.20;0.60;;;20.70;99.90;;;;;;4966204;28;20042;-82
2022/07/06 08:22:35;;;;;;;6.57;2.88;;;20.60;99.90;;;;;;5011519;28;20096;-82
2022/07/06 08:25:02;;;;;;;1.50;0.60;;;20.60;99.90;;;;;;4996690;28;20152;-82
2022/07/06 08:27:28;;;;;;;3.97;0.73;;;20.50;99.90;;;;;;5008228;28;20626;-82
2022/07/06 08:29:55;;;;;;;4.20;0.50;;;20.40;99.90;;;;;;4983495;28;20148;-82
2022/07/06 08:32:21;;;;;;;8.60;5.95;;;20.50;99.90;;;;;;4964179;28;20057;-81
2022/07/06 08:34:47;;;;;;;2.05;0.73;;;20.60;99.90;;;;;;4948724;28;20107;-81
2022/07/06 08:37:14;;;;;;;3.45;0.50;;;20.40;99.90;;;;;;4966045;28;20056;-81
2022/07/06 08:39:40;;;;;;;2.85;0.70;;;20.20;99.90;;;;;;4968450;28;20049;-82
2022/07/06 08:42:09;;;;;;;2.58;0.57;;;19.90;99.90;;;;;;4995949;28;20132;-81
2022/07/06 08:44:36;;;;;;;0.95;0.30;;;19.50;99.90;;;;;;4980674;28;20050;-81
2022/07/06 08:47:06;;;;;;;2.95;0.47;;;19.70;99.90;;;;;;4986208;28;20737;-82
2022/07/06 08:49:36;;;;;;;1.67;0.70;;;19.70;99.90;;;;;;4997694;28;20355;-81
2022/07/06 08:52:04;;;;;;;3.55;1.25;;;19.90;99.90;;;;;;4967328;28;20038;-81
2022/07/06 08:54:30;;;;;;;2.75;0.45;;;20.10;99.90;;;;;;5002093;28;20453;-81
2022/07/06 08:56:58;;;;;;;3.80;0.88;;;20.00;99.90;;;;;;4987381;28;20596;-81
2022/07/06 08:59:25;;;;;;;2.63;0.57;;;19.80;99.90;;;;;;5002287;28;20061;-80
2022/07/06 09:01:51;;;;;;;2.97;0.70;;;19.70;99.90;;;;;;4999721;28;20104;-81
2022/07/06 09:04:21;;;;;;;7.68;3.83;;;19.40;99.90;;;;;;5015364;28;20431;-81
2022/07/06 09:06:48;;;;;;;4.78;1.45;;;19.70;99.90;;;;;;4987187;28;20046;-81
2022/07/06 09:09:24;;;;;;;5.07;1.23;;;20.20;99.90;;;;;;4975688;28;20037;-81
2022/07/06 09:11:51;;;;;;;4.72;2.53;;;20.80;99.90;;;;;;4989355;28;20409;-82
2022/07/06 09:14:21;;;;;;;3.85;1.60;;;21.30;99.90;;;;;;4987492;28;20050;-81
2022/07/06 09:16:52;;;;;;;5.38;3.72;;;21.70;99.90;;;;;;5001086;28;20041;-81
2022/07/06 09:19:19;;;;;;;3.75;0.50;;;22.10;99.90;;;;;;5035604;28;20057;-82
2022/07/06 09:21:45;;;;;;;3.10;0.70;;;22.10;99.90;;;;;;5012067;28;20128;-82
2022/07/06 09:24:15;;;;;;;1.88;0.45;;;22.50;99.90;;;;;;4969967;28;20089;-82
2022/07/06 09:26:42;;;;;;;2.50;0.45;;;23.00;99.90;;;;;;5002198;28;20125;-82
2022/07/06 09:29:09;;;;;;;2.38;0.45;;;22.80;99.90;;;;;;5000836;28;20133;-82
2022/07/06 09:31:35;;;;;;;3.13;0.50;;;22.70;99.90;;;;;;5000115;28;20062;-82
2022/07/06 09:34:09;;;;;;;5.10;0.55;;;22.90;98.60;;;;;;4986388;28;20037;-82
2022/07/06 09:36:41;;;;;;;0.98;0.35;;;23.10;97.50;;;;;;4985801;28;20046;-82
2022/07/06 09:39:22;;;;;;;1.73;0.70;;;23.50;93.20;;;;;;4966664;28;20622;-82
2022/07/06 09:41:50;;;;;;;3.63;0.73;;;23.30;88.50;;;;;;4982813;28;20052;-82
2022/07/06 09:44:33;;;;;;;2.53;0.40;;;22.90;91.30;;;;;;4998815;28;20049;-82
2022/07/06 09:47:01;;;;;;;0.57;0.30;;;23.00;93.40;;;;;;5034199;28;20041;-81
2022/07/06 09:49:28;;;;;;;1.75;0.20;;;23.60;90.50;;;;;;4985475;28;20282;-81
2022/07/06 09:51:58;;;;;;;2.28;0.47;;;23.90;87.00;;;;;;4968994;28;20088;-81
2022/07/06 09:54:24;;;;;;;2.42;0.40;;;23.60;83.10;;;;;;5000411;28;20050;-82
2022/07/06 09:56:52;;;;;;;2.45;0.50;;;23.10;83.70;;;;;;4976820;28;20317;-81
2022/07/06 09:59:26;;;;;;;2.28;0.57;;;23.10;79.90;;;;;;4966596;28;20520;-81
2022/07/06 10:01:56;;;;;;;3.20;0.80;;;23.10;81.40;;;;;;4985057;28;20129;-81
2022/07/06 10:04:24;;;;;;;1.67;0.32;;;23.50;84.80;;;;;;4980340;28;20520;-81
2022/07/06 10:06:51;;;;;;;4.03;0.60;;;23.90;85.10;;;;;;4999380;28;20042;-81
2022/07/06 10:09:22;;;;;;;2.65;0.60;;;24.30;82.10;;;;;;5000304;28;20873;-81
2022/07/06 10:11:50;;;;;;;2.17;0.30;;;24.20;75.70;;;;;;4993775;28;20307;-81
2022/07/06 10:14:25;;;;;;;1.35;0.30;;;24.10;77.20;;;;;;5027807;28;20034;-81
2022/07/06 10:16:52;;;;;;;2.60;0.70;;;24.20;78.90;;;;;;4966035;28;20046;-81
2022/07/06 10:19:21;;;;;;;3.67;0.40;;;23.80;80.40;;;;;;4958222;28;20116;-81
2022/07/06 10:21:47;;;;;;;1.92;0.40;;;23.60;81.10;;;;;;5002374;28;20461;-81
2022/07/06 10:24:15;;;;;;;3.30;1.05;;;23.30;78.90;;;;;;4954597;28;20042;-81
2022/07/06 10:26:42;;;;;;;1.75;0.30;;;22.80;79.20;;;;;;4966428;28;20177;-80
2022/07/06 10:29:09;;;;;;;2.50;1.13;;;22.90;79.40;;;;;;4985823;28;20088;-81
2022/07/06 10:31:43;;;;;;;1.73;0.30;;;23.20;80.70;;;;;;4968608;28;20428;-81
2022/07/06 10:34:12;;;;;;;2.78;0.60;;;23.80;76.30;;;;;;4968948;28;20171;-81
2022/07/06 10:36:41;;;;;;;2.35;0.40;;;23.90;80.00;;;;;;4953242;28;20050;-81
2022/07/06 10:41:54;;;;;;;1.88;0.50;;;24.60;74.70;;;;;;4996579;28;20053;-81
2022/07/06 10:44:22;;;;;;;5.20;0.55;;;24.60;75.00;;;;;;5000611;28;20129;-82
2022/07/06 10:46:54;;;;;;;1.67;0.30;;;24.50;71.40;;;;;;4976753;28;20076;-81
2022/07/06 10:49:20;;;;;;;;;;;24.40;74.30;;;;;;5019006;28;20650;-81
2022/07/06 10:51:47;;;;;;;3.10;0.40;;;23.40;73.20;;;;;;5042938;28;19921;-81
2022/07/06 10:54:15;;;;;;;2.65;0.75;;;23.10;74.90;;;;;;5016719;28;20138;-80
2022/07/06 10:56:50;;;;;;;2.75;0.45;;;23.10;80.00;;;;;;4995964;28;20050;-81
2022/07/06 10:59:23;;;;;;;1.15;0.50;;;23.10;87.00;;;;;;5030553;28;20061;-81
2022/07/06 11:02:12;;;;;;;3.20;0.70;;;23.50;87.50;;;;;;4982593;28;20044;-82
2022/07/06 11:04:40;;;;;;;4.63;0.47;;;23.80;92.10;;;;;;4963177;28;20149;-81
2022/07/06 11:07:09;;;;;;;1.95;0.47;;;23.70;89.40;;;;;;5001058;28;20076;-82
2022/07/06 11:09:36;;;;;;;3.60;0.60;;;24.20;91.60;;;;;;5017697;28;20046;-82
2022/07/06 11:12:15;;;;;;;2.88;1.55;;;24.00;82.30;;;;;;4999173;28;20121;-81
2022/07/06 11:14:41;;;;;;;4.30;0.60;;;24.10;81.60;;;;;;4983338;28;20564;-82
2022/07/06 11:17:10;;;;;;;2.83;0.40;;;24.50;78.70;;;;;;4965067;28;20743;-81
2022/07/06 11:19:37;;;;;;;2.28;0.50;;;24.80;76.00;;;;;;5015785;28;20132;-82
2022/07/06 11:22:09;;;;;;;5.88;0.80;;;23.90;77.30;;;;;;5005714;28;20158;-81
2022/07/06 11:24:42;;;;;;;1.77;0.50;;;23.70;79.00;;;;;;4983631;28;20050;-82
2022/07/06 11:27:09;;;;;;;2.15;0.60;;;23.40;77.80;;;;;;4990979;28;20084;-82
2022/07/06 11:29:39;;;;;;;4.55;0.70;;;22.70;84.20;;;;;;4995453;28;20073;-82
2022/07/06 11:32:09;;;;;;;2.78;0.88;;;22.50;90.10;;;;;;4999228;28;20045;-81
2022/07/06 11:34:38;;;;;;;3.38;0.60;;;22.40;90.20;;;;;;4964647;28;20143;-81
2022/07/06 11:37:12;;;;;;;3.83;0.60;;;22.40;90.30;;;;;;5030986;28;20532;-82
2022/07/06 11:39:41;;;;;;;2.60;0.47;;;22.60;92.40;;;;;;4996221;28;20061;-81
2022/07/06 11:42:09;;;;;;;2.47;0.82;;;22.40;92.10;;;;;;4996631;28;20049;-81
2022/07/06 11:44:36;;;;;;;3.03;0.47;;;22.30;92.10;;;;;;5014097;28;20517;-81
2022/07/06 11:47:06;;;;;;;1.77;0.40;;;22.40;92.80;;;;;;4997395;28;20057;-82
2022/07/06 11:49:34;;;;;;;3.53;0.75;;;22.60;93.40;;;;;;4966544;28;20085;-82
2022/07/06 11:52:06;;;;;;;2.55;0.43;;;23.10;93.70;;;;;;4983533;28;20045;-81
2022/07/06 11:54:33;;;;;;;2.72;0.60;;;23.30;85.70;;;;;;4993103;28;20057;-82
2022/07/06 11:57:00;;;;;;;5.25;0.88;;;23.40;83.70;;;;;;4995209;28;20077;-82
2022/07/06 11:59:32;;;;;;;3.88;0.45;;;23.30;81.90;;;;;;4983454;28;20046;-82
2022/07/06 12:02:04;;;;;;;3.72;0.70;;;23.00;84.10;;;;;;4986565;28;20054;-82
2022/07/06 12:04:33;;;;;;;3.78;0.57;;;22.70;85.90;;;;;;5009707;28;20058;-82
2022/07/06 12:07:04;;;;;;;2.95;0.70;;;22.80;89.30;;;;;;5003552;28;20125;-81
2022/07/06 12:09:35;;;;;;;2.40;0.68;;;23.00;90.80;;;;;;4998739;28;20076;-82
2022/07/06 12:12:03;;;;;;;1.95;0.50;;;23.50;90.40;;;;;;4988826;28;20072;-82
2022/07/06 12:14:34;;;;;;;2.22;0.52;;;24.50;81.60;;;;;;4983053;28;20606;-81
2022/07/06 12:17:05;;;;;;;4.35;1.00;;;24.90;83.40;;;;;;4994449;28;20537;-82
2022/07/06 12:19:33;;;;;;;3.35;0.85;;;24.70;77.90;;;;;;4985137;28;20049;-81
2022/07/06 12:22:01;;;;;;;5.30;2.45;;;24.10;68.10;;;;;;5000117;28;20129;-81
2022/07/06 12:24:31;;;;;;;1.92;0.47;;;24.20;67.60;;;;;;5018516;28;20064;-81
2022/07/06 12:26:58;;;;;;;2.95;0.60;;;24.50;69.50;;;;;;5013249;28;20065;-82
2022/07/06 12:29:24;;;;;;;2.78;0.70;;;24.80;69.70;;;;;;5023106;28;20048;-82
2022/07/06 12:31:52;;;;;;;2.50;0.50;;;24.70;72.60;;;;;;5019568;28;20405;-82
2022/07/06 12:34:21;;;;;;;2.25;0.63;;;24.70;75.10;;;;;;5002538;28;20049;-81
2022/07/06 12:36:52;;;;;;;3.25;0.73;;;24.30;75.30;;;;;;4975170;28;20145;-82
2022/07/06 12:39:24;;;;;;;1.83;1.00;;;23.70;76.80;;;;;;4987371;28;20501;-82
2022/07/06 12:41:56;;;;;;;2.53;0.60;;;23.60;74.40;;;;;;4981237;28;20056;-82
2022/07/06 12:44:24;;;;;;;2.75;0.80;;;23.30;76.70;;;;;;5022131;28;20421;-82
2022/07/06 12:47:09;;;;;;;1.02;0.50;;;23.00;77.00;;;;;;4987108;28;20072;-82
2022/07/06 12:49:37;;;;;;;4.82;2.45;;;23.40;82.60;;;;;;5041300;28;20524;-81
2022/07/06 12:52:06;;;;;;;2.90;0.98;;;24.20;75.30;;;;;;4969855;28;20077;-81
2022/07/06 12:54:34;;;;;;;4.00;0.82;;;24.40;69.70;;;;;;5019367;28;20050;-81
2022/07/06 12:57:12;;;;;;;4.03;1.73;;;24.20;72.30;;;;;;5003394;28;20076;-82
2022/07/06 12:59:41;;;;;;;4.97;0.82;;;24.40;68.70;;;;;;5010406;28;20053;-82